createdAt,value
2019-01-30T00:00:58.936Z,0.60
2019-01-30T00:03:26.028Z,0.89
2019-01-30T00:05:53.159Z,0.79
2019-01-30T00:08:20.331Z,0.72
2019-01-30T00:10:47.422Z,0.70
2019-01-30T00:13:14.958Z,0.85
2019-01-30T00:15:42.354Z,0.92
2019-01-30T00:18:09.558Z,0.92
2019-01-30T00:20:36.588Z,0.82
2019-01-30T00:23:03.931Z,0.72
2019-01-30T00:25:31.367Z,0.74
2019-01-30T00:27:58.562Z,0.72
2019-01-30T00:30:26.501Z,0.72
2019-01-30T00:32:53.699Z,0.92
2019-01-30T00:35:20.885Z,0.94
2019-01-30T00:37:48.033Z,0.88
2019-01-30T00:40:15.653Z,0.88
2019-01-30T00:42:45.794Z,0.84
2019-01-30T00:45:13.513Z,0.89
2019-01-30T00:47:40.734Z,0.91
2019-01-30T00:50:09.211Z,0.77
2019-01-30T00:52:36.274Z,0.79
2019-01-30T00:55:04.522Z,0.88
2019-01-30T00:57:31.700Z,0.90
2019-01-30T00:59:58.882Z,0.97
2019-01-30T01:02:26.070Z,0.94
2019-01-30T01:04:53.230Z,0.99
2019-01-30T01:07:20.714Z,0.96
2019-01-30T01:09:48.244Z,1.01
2019-01-30T01:12:15.376Z,0.92
2019-01-30T01:14:42.551Z,0.85
2019-01-30T01:17:09.752Z,0.91
2019-01-30T01:19:36.931Z,0.92
2019-01-30T01:22:04.178Z,0.81
2019-01-30T01:24:31.365Z,0.65
2019-01-30T01:26:58.925Z,0.78
2019-01-30T01:29:25.994Z,0.81
2019-01-30T01:31:53.305Z,0.64
2019-01-30T01:34:20.371Z,0.61
2019-01-30T01:36:47.526Z,0.58
2019-01-30T01:39:14.798Z,0.54
2019-01-30T01:41:42.008Z,0.61
2019-01-30T01:44:09.275Z,0.43
2019-01-30T01:46:36.429Z,0.54
2019-01-30T01:49:04.077Z,0.54
2019-01-30T01:51:31.403Z,0.49
2019-01-30T01:53:58.575Z,0.46
2019-01-30T01:56:25.759Z,0.44
2019-01-30T01:58:52.991Z,0.36
2019-01-30T02:01:20.290Z,0.38
2019-01-30T02:03:47.446Z,0.46
2019-01-30T02:06:14.576Z,0.39
2019-01-30T02:08:42.030Z,0.40
2019-01-30T02:11:09.115Z,0.30
2019-01-30T02:13:36.326Z,0.31
2019-01-30T02:16:03.521Z,0.27
2019-01-30T02:18:31.003Z,0.38
2019-01-30T02:20:58.046Z,0.29
2019-01-30T02:23:25.213Z,0.40
2019-01-30T02:25:52.386Z,0.26
2019-01-30T02:28:19.488Z,0.25
2019-01-30T02:30:47.879Z,0.30
2019-01-30T02:33:15.052Z,0.25
2019-01-30T02:35:42.098Z,0.08
2019-01-30T02:38:09.276Z,0.00
2019-01-30T02:40:36.408Z,0.02
2019-01-30T02:43:03.623Z,0.05
2019-01-30T02:45:30.806Z,0.19
2019-01-30T02:47:57.936Z,0.11
2019-01-30T02:50:25.085Z,0.17
2019-01-30T02:52:52.269Z,0.10
2019-01-30T02:55:19.555Z,0.09
2019-01-30T02:57:46.700Z,0.11
2019-01-30T03:00:16.575Z,0.20
2019-01-30T03:02:43.798Z,0.04
2019-01-30T03:05:11.158Z,0.01
2019-01-30T03:07:38.367Z,0.13
2019-01-30T03:10:08.170Z,0.12
2019-01-30T03:12:35.338Z,0.19
2019-01-30T03:15:02.697Z,0.30
2019-01-30T03:17:29.834Z,0.21
2019-01-30T03:19:56.981Z,0.15
2019-01-30T03:22:24.135Z,0.07
2019-01-30T03:24:51.320Z,-0.12
2019-01-30T03:27:18.486Z,-0.20
2019-01-30T03:29:45.653Z,-0.13
2019-01-30T03:32:12.811Z,-0.22
2019-01-30T03:34:39.895Z,-0.20
2019-01-30T03:37:07.051Z,-0.13
2019-01-30T03:39:34.123Z,0.06
2019-01-30T03:42:01.311Z,0.10
2019-01-30T03:44:28.500Z,0.25
2019-01-30T03:46:55.957Z,0.30
2019-01-30T03:49:23.110Z,0.23
2019-01-30T03:51:53.645Z,0.34
2019-01-30T03:54:27.379Z,0.25
2019-01-30T03:56:54.595Z,0.23
2019-01-30T03:59:21.734Z,0.26
2019-01-30T04:01:48.904Z,0.29
2019-01-30T04:04:16.081Z,0.31
2019-01-30T04:06:43.539Z,0.35
2019-01-30T04:09:10.706Z,0.42
2019-01-30T04:11:37.933Z,0.41
2019-01-30T04:14:05.471Z,0.41
2019-01-30T04:16:32.627Z,0.62
2019-01-30T04:18:59.803Z,0.62
2019-01-30T04:21:26.856Z,0.75
2019-01-30T04:23:54.024Z,0.76
2019-01-30T04:26:23.005Z,0.84
2019-01-30T04:28:50.176Z,0.76
2019-01-30T04:31:17.330Z,0.76
2019-01-30T04:33:44.815Z,0.77
2019-01-30T04:36:12.255Z,0.79
2019-01-30T04:38:39.438Z,0.81
2019-01-30T04:41:06.634Z,0.99
2019-01-30T04:43:33.823Z,1.06
2019-01-30T04:46:00.989Z,0.98
2019-01-30T04:48:28.161Z,1.00
2019-01-30T04:50:57.105Z,0.93
2019-01-30T04:53:24.287Z,1.06
2019-01-30T04:55:51.464Z,0.92
2019-01-30T04:58:18.671Z,0.84
2019-01-30T05:00:45.981Z,0.94
2019-01-30T05:03:13.073Z,1.01
2019-01-30T05:05:40.161Z,1.01
2019-01-30T05:08:07.617Z,1.03
2019-01-30T05:10:34.821Z,1.06
2019-01-30T05:13:02.041Z,1.14
2019-01-30T05:15:29.578Z,1.16
2019-01-30T05:17:56.708Z,1.11
2019-01-30T05:20:23.855Z,1.05
2019-01-30T05:22:51.065Z,1.03
2019-01-30T05:25:18.324Z,1.11
2019-01-30T05:27:45.451Z,1.13
2019-01-30T05:30:15.710Z,1.02
2019-01-30T05:32:42.902Z,1.09
2019-01-30T05:35:10.289Z,1.22
2019-01-30T05:37:37.434Z,1.20
2019-01-30T05:40:06.485Z,1.17
2019-01-30T05:42:33.621Z,1.16
2019-01-30T05:45:00.672Z,1.20
2019-01-30T05:47:27.916Z,1.16
2019-01-30T05:49:54.960Z,1.12
2019-01-30T05:52:22.110Z,1.14
2019-01-30T05:54:49.291Z,1.07
2019-01-30T05:57:16.428Z,1.20
2019-01-30T05:59:43.862Z,1.13
2019-01-30T06:02:12.447Z,1.08
2019-01-30T06:04:39.758Z,1.30
2019-01-30T06:07:06.909Z,1.40
2019-01-30T06:09:34.420Z,1.37
2019-01-30T06:12:01.605Z,1.45
2019-01-30T06:14:29.588Z,1.46
2019-01-30T06:16:56.858Z,1.50
2019-01-30T06:19:24.006Z,1.43
2019-01-30T06:21:51.144Z,1.39
2019-01-30T06:24:18.579Z,1.33
2019-01-30T06:26:45.664Z,1.33
2019-01-30T06:29:12.796Z,1.36
2019-01-30T06:31:39.927Z,1.39
2019-01-30T06:34:07.069Z,1.54
2019-01-30T06:36:34.475Z,1.36
2019-01-30T06:39:01.661Z,1.23
2019-01-30T06:41:29.141Z,1.06
2019-01-30T06:43:56.271Z,1.02
2019-01-30T06:46:23.483Z,0.91
2019-01-30T06:48:50.653Z,0.97
2019-01-30T06:51:17.843Z,0.88
2019-01-30T06:53:44.901Z,0.83
2019-01-30T06:56:15.450Z,0.83
2019-01-30T06:58:42.593Z,0.83
2019-01-30T07:01:09.793Z,1.00
2019-01-30T07:03:36.946Z,1.00
2019-01-30T07:06:04.127Z,1.07
2019-01-30T07:08:31.215Z,0.95
2019-01-30T07:10:58.667Z,1.08
2019-01-30T07:13:25.788Z,1.09
2019-01-30T07:15:52.989Z,1.07
2019-01-30T07:18:20.125Z,0.98
2019-01-30T07:20:47.273Z,0.84
2019-01-30T07:23:14.451Z,0.79
2019-01-30T07:25:41.630Z,0.83
2019-01-30T07:28:08.786Z,0.73
2019-01-30T07:30:36.145Z,0.59
2019-01-30T07:33:04.459Z,0.58
2019-01-30T07:35:31.584Z,0.46
2019-01-30T07:37:59.165Z,0.43
2019-01-30T07:40:26.343Z,0.52
2019-01-30T07:42:53.511Z,0.48
2019-01-30T07:45:22.243Z,0.46
2019-01-30T07:47:49.279Z,0.46
2019-01-30T07:50:16.374Z,0.56
2019-01-30T07:52:43.568Z,0.51
2019-01-30T07:55:12.849Z,0.64
2019-01-30T07:57:43.410Z,0.58
2019-01-30T08:00:19.562Z,0.66
2019-01-30T08:02:52.923Z,0.53
2019-01-30T08:05:15.778Z,0.67
2019-01-30T08:07:42.952Z,0.62
2019-01-30T08:10:11.112Z,0.73
2019-01-30T08:12:38.312Z,0.64
2019-01-30T08:15:08.016Z,0.54
2019-01-30T08:17:35.198Z,0.51
2019-01-30T08:20:03.143Z,0.56
2019-01-30T08:22:30.600Z,0.66
2019-01-30T08:24:57.752Z,0.72
2019-01-30T08:27:25.143Z,0.89
2019-01-30T08:29:52.817Z,1.00
2019-01-30T08:32:22.315Z,1.06
2019-01-30T08:34:49.102Z,1.15
2019-01-30T08:37:16.203Z,1.25
2019-01-30T08:39:43.352Z,1.40
2019-01-30T08:42:10.423Z,1.32
2019-01-30T08:44:46.707Z,1.29
2019-01-30T08:47:06.963Z,1.30
2019-01-30T08:49:34.104Z,1.39
2019-01-30T08:52:01.332Z,1.39
2019-01-30T08:54:28.384Z,1.48
2019-01-30T08:56:55.521Z,1.42
2019-01-30T08:59:22.966Z,1.49
2019-01-30T09:01:50.203Z,1.54
2019-01-30T09:04:17.366Z,1.52
2019-01-30T09:06:44.576Z,1.52
2019-01-30T09:09:12.027Z,1.58
2019-01-30T09:11:39.179Z,1.55
2019-01-30T09:14:06.397Z,1.55
2019-01-30T09:16:33.587Z,1.61
2019-01-30T09:19:00.744Z,1.55
2019-01-30T09:21:27.934Z,1.50
2019-01-30T09:23:54.990Z,1.50
2019-01-30T09:26:22.187Z,1.55
2019-01-30T09:28:49.369Z,1.63
2019-01-30T09:31:16.555Z,1.72
2019-01-30T09:33:43.752Z,1.75
2019-01-30T09:36:10.957Z,1.86
2019-01-30T09:38:38.109Z,1.87
2019-01-30T09:41:05.333Z,1.90
2019-01-30T09:43:32.512Z,1.85
2019-01-30T09:46:00.003Z,1.84
2019-01-30T09:48:27.178Z,1.89
2019-01-30T09:50:54.255Z,1.86
2019-01-30T09:53:21.439Z,1.91
2019-01-30T09:55:48.644Z,2.00
2019-01-30T09:58:15.792Z,1.94
2019-01-30T10:00:42.895Z,1.95
2019-01-30T10:03:10.018Z,1.98
2019-01-30T10:05:37.089Z,2.04
2019-01-30T10:08:05.905Z,2.14
2019-01-30T10:10:34.967Z,2.32
2019-01-30T10:13:02.273Z,2.42
2019-01-30T10:15:31.533Z,2.54
2019-01-30T10:17:58.655Z,2.61
2019-01-30T10:20:26.184Z,2.62
2019-01-30T10:22:53.444Z,2.60
2019-01-30T10:25:20.638Z,2.55
2019-01-30T10:27:47.852Z,2.56
2019-01-30T10:30:20.773Z,2.62
2019-01-30T10:32:47.981Z,2.66
2019-01-30T10:35:15.170Z,2.67
2019-01-30T10:37:42.336Z,2.79
2019-01-30T10:40:12.043Z,2.74
2019-01-30T10:42:39.249Z,2.68
2019-01-30T10:45:06.904Z,2.69
2019-01-30T10:47:34.029Z,2.72
2019-01-30T10:50:01.229Z,2.74
2019-01-30T10:52:28.260Z,2.72
2019-01-30T10:54:55.444Z,2.73
2019-01-30T10:57:22.641Z,2.89
2019-01-30T10:59:49.813Z,2.82
2019-01-30T11:02:16.964Z,2.84
2019-01-30T11:04:44.157Z,2.76
2019-01-30T11:07:11.328Z,2.80
2019-01-30T11:09:38.770Z,2.87
2019-01-30T11:12:05.974Z,2.91
2019-01-30T11:14:33.162Z,2.95
2019-01-30T11:17:00.340Z,3.04
2019-01-30T11:19:27.520Z,3.11
2019-01-30T11:21:54.727Z,3.19
2019-01-30T11:24:21.800Z,3.25
2019-01-30T11:26:49.074Z,3.33
2019-01-30T11:29:16.434Z,3.41
2019-01-30T11:31:43.639Z,3.45
2019-01-30T11:34:10.760Z,3.49
2019-01-30T11:36:37.940Z,3.59
2019-01-30T11:39:06.618Z,3.66
2019-01-30T11:41:33.846Z,3.70
2019-01-30T11:44:01.022Z,3.74
2019-01-30T11:46:28.503Z,3.72
2019-01-30T11:48:56.698Z,3.71
2019-01-30T11:51:24.012Z,3.66
2019-01-30T11:53:51.234Z,3.63
2019-01-30T11:56:18.457Z,3.56
2019-01-30T11:58:45.652Z,3.53
2019-01-30T12:01:13.838Z,3.63
2019-01-30T12:03:41.054Z,3.66
2019-01-30T12:06:08.212Z,3.68
2019-01-30T12:08:35.738Z,3.69
2019-01-30T12:11:02.816Z,3.71
2019-01-30T12:13:30.044Z,3.78
2019-01-30T12:15:57.107Z,3.84
2019-01-30T12:18:24.329Z,3.88
2019-01-30T12:20:51.932Z,3.90
2019-01-30T12:23:19.399Z,3.91
2019-01-30T12:25:46.927Z,3.95
2019-01-30T12:28:14.184Z,4.00
2019-01-30T12:30:41.442Z,4.06
2019-01-30T12:33:08.655Z,3.99
2019-01-30T12:35:35.866Z,3.98
2019-01-30T12:38:03.036Z,3.99
2019-01-30T12:40:30.273Z,3.91
2019-01-30T12:42:57.418Z,3.92
2019-01-30T12:45:29.344Z,3.91
2019-01-30T12:47:56.757Z,3.93
2019-01-30T12:50:24.124Z,3.88
2019-01-30T12:52:51.525Z,3.89
2019-01-30T12:55:19.094Z,3.90
2019-01-30T12:57:46.168Z,3.90
2019-01-30T13:00:18.467Z,3.91
2019-01-30T13:02:45.542Z,4.00
2019-01-30T13:05:13.185Z,4.03
2019-01-30T13:07:40.353Z,4.04
2019-01-30T13:10:08.178Z,4.07
2019-01-30T13:12:35.650Z,4.12
2019-01-30T13:15:04.144Z,4.18
2019-01-30T13:17:31.344Z,4.27
2019-01-30T13:19:58.506Z,4.63
2019-01-30T13:22:25.699Z,4.62
2019-01-30T13:24:52.904Z,4.62
2019-01-30T13:27:20.070Z,4.79
2019-01-30T13:29:47.284Z,4.69
2019-01-30T13:32:14.471Z,4.65
2019-01-30T13:34:48.783Z,4.63
2019-01-30T13:37:10.636Z,4.75
2019-01-30T13:39:37.733Z,4.71
2019-01-30T13:42:04.959Z,4.68
2019-01-30T13:44:32.169Z,4.57
2019-01-30T13:46:59.347Z,4.55
2019-01-30T13:49:26.516Z,4.50
2019-01-30T13:51:53.719Z,4.44
2019-01-30T13:54:20.925Z,4.68
2019-01-30T13:56:48.065Z,4.57
2019-01-30T13:59:15.284Z,4.58
2019-01-30T14:01:42.556Z,4.42
2019-01-30T14:04:09.738Z,4.32
2019-01-30T14:06:36.887Z,4.31
2019-01-30T14:09:07.171Z,4.21
2019-01-30T14:11:34.324Z,4.27
2019-01-30T14:14:01.864Z,4.31
2019-01-30T14:16:29.079Z,4.28
2019-01-30T14:18:56.253Z,4.24
2019-01-30T14:21:24.628Z,4.08
2019-01-30T14:23:51.978Z,4.06
2019-01-30T14:26:19.015Z,4.02
2019-01-30T14:28:46.478Z,3.96
2019-01-30T14:31:13.674Z,3.89
2019-01-30T14:33:41.147Z,3.83
2019-01-30T14:36:08.227Z,3.84
2019-01-30T14:38:35.487Z,3.79
2019-01-30T14:41:02.998Z,3.70
2019-01-30T14:43:30.208Z,3.81
2019-01-30T14:45:57.422Z,3.85
2019-01-30T14:48:24.825Z,3.76
2019-01-30T14:50:51.919Z,3.73
2019-01-30T14:53:19.121Z,3.59
2019-01-30T14:55:46.581Z,3.55
2019-01-30T14:58:13.859Z,3.55
2019-01-30T15:00:41.130Z,3.54
2019-01-30T15:03:08.189Z,3.51
2019-01-30T15:05:35.309Z,3.43
2019-01-30T15:08:02.862Z,3.44
2019-01-30T15:10:30.003Z,3.37
2019-01-30T15:12:57.209Z,3.30
2019-01-30T15:15:26.439Z,3.35
2019-01-30T15:17:53.879Z,3.35
2019-01-30T15:20:22.982Z,3.24
2019-01-30T15:22:50.196Z,3.17
2019-01-30T15:25:18.511Z,3.21
2019-01-30T15:27:45.684Z,3.28
2019-01-30T15:30:16.017Z,3.22
2019-01-30T15:32:43.213Z,3.22
2019-01-30T15:35:10.511Z,3.17
2019-01-30T15:37:37.752Z,3.23
2019-01-30T15:40:05.880Z,3.14
2019-01-30T15:42:33.073Z,3.13
2019-01-30T15:45:00.484Z,3.12
2019-01-30T15:47:27.661Z,3.04
2019-01-30T15:49:54.726Z,2.96
2019-01-30T15:52:22.596Z,2.94
2019-01-30T15:54:49.851Z,2.93
2019-01-30T15:57:17.017Z,3.11
2019-01-30T15:59:44.216Z,3.30
2019-01-30T16:02:11.379Z,3.23
2019-01-30T16:04:38.856Z,3.13
2019-01-30T16:07:06.055Z,3.15
2019-01-30T16:09:33.263Z,3.10
2019-01-30T16:12:00.428Z,3.04
2019-01-30T16:14:27.986Z,2.86
2019-01-30T16:16:55.149Z,2.87
2019-01-30T16:19:22.642Z,2.95
2019-01-30T16:21:49.935Z,3.07
2019-01-30T16:24:17.111Z,3.02
2019-01-30T16:26:44.274Z,3.01
2019-01-30T16:29:11.484Z,3.04
2019-01-30T16:31:38.797Z,2.89
2019-01-30T16:34:05.965Z,2.97
2019-01-30T16:36:33.221Z,3.03
2019-01-30T16:39:00.651Z,2.93
2019-01-30T16:41:27.810Z,2.87
2019-01-30T16:43:55.015Z,2.92
2019-01-30T16:46:22.439Z,2.98
2019-01-30T16:48:49.606Z,2.97
2019-01-30T16:51:16.857Z,2.85
2019-01-30T16:53:44.033Z,2.87
2019-01-30T16:56:11.463Z,3.06
2019-01-30T16:58:38.672Z,3.04
2019-01-30T17:01:05.869Z,2.98
2019-01-30T17:03:33.112Z,2.93
2019-01-30T17:06:07.092Z,2.87
2019-01-30T17:08:29.161Z,2.95
2019-01-30T17:10:56.336Z,2.99
2019-01-30T17:13:23.751Z,2.91
2019-01-30T17:15:51.001Z,2.84
2019-01-30T17:18:19.075Z,2.84
2019-01-30T17:20:46.333Z,2.84
2019-01-30T17:23:13.537Z,2.76
2019-01-30T17:25:40.907Z,2.85
2019-01-30T17:28:08.304Z,2.76
2019-01-30T17:30:47.301Z,2.80
2019-01-30T17:33:14.647Z,2.69
2019-01-30T17:35:41.848Z,2.68
2019-01-30T17:38:09.275Z,2.69
2019-01-30T17:40:37.047Z,2.71
2019-01-30T17:43:04.350Z,2.69
2019-01-30T17:45:31.535Z,2.62
2019-01-30T17:47:58.742Z,2.67
2019-01-30T17:50:26.498Z,2.62
2019-01-30T17:52:53.697Z,2.62
2019-01-30T17:55:21.356Z,2.66
2019-01-30T17:57:48.906Z,2.78
2019-01-30T18:00:24.390Z,2.74
2019-01-30T18:02:51.648Z,2.65
2019-01-30T18:05:19.119Z,2.71
2019-01-30T18:07:46.333Z,2.62
2019-01-30T18:10:13.599Z,2.59
2019-01-30T18:12:40.795Z,2.68
2019-01-30T18:15:08.891Z,2.63
2019-01-30T18:17:36.056Z,2.63
2019-01-30T18:20:04.523Z,2.56
2019-01-30T18:22:31.841Z,2.49
2019-01-30T18:24:59.011Z,2.51
2019-01-30T18:27:26.205Z,2.41
2019-01-30T18:29:53.399Z,2.36
2019-01-30T18:32:20.589Z,2.27
2019-01-30T18:34:48.140Z,2.22
2019-01-30T18:37:15.266Z,2.50
2019-01-30T18:39:42.429Z,2.47
2019-01-30T18:42:09.612Z,2.42
2019-01-30T18:44:36.794Z,2.52
2019-01-30T18:47:04.202Z,2.54
2019-01-30T18:49:31.405Z,2.59
2019-01-30T18:51:58.653Z,2.67
2019-01-30T18:54:25.716Z,2.54
2019-01-30T18:56:52.938Z,2.55
2019-01-30T18:59:20.144Z,2.57
2019-01-30T19:01:47.346Z,2.58
2019-01-30T19:04:14.508Z,2.65
2019-01-30T19:06:51.670Z,2.65
2019-01-30T19:09:10.947Z,2.72
2019-01-30T19:11:38.145Z,2.71
2019-01-30T19:14:05.438Z,2.75
2019-01-30T19:16:32.722Z,2.71
2019-01-30T19:18:59.904Z,2.74
2019-01-30T19:21:27.118Z,2.56
2019-01-30T19:23:54.233Z,2.41
2019-01-30T19:26:21.844Z,2.41
2019-01-30T19:28:49.033Z,2.39
2019-01-30T19:31:16.214Z,2.32
2019-01-30T19:33:43.383Z,2.32
2019-01-30T19:36:10.762Z,2.35
2019-01-30T19:38:38.016Z,2.47
2019-01-30T19:41:05.199Z,2.59
2019-01-30T19:43:32.431Z,2.72
2019-01-30T19:45:59.581Z,2.62
2019-01-30T19:48:26.783Z,2.59
2019-01-30T19:50:54.159Z,2.51
2019-01-30T19:53:21.385Z,2.46
2019-01-30T19:55:48.569Z,2.51
2019-01-30T19:58:21.788Z,2.48
2019-01-30T20:00:48.962Z,2.51
2019-01-30T20:03:21.061Z,2.48
2019-01-30T20:05:48.227Z,2.48
2019-01-30T20:08:15.626Z,2.50
2019-01-30T20:10:42.964Z,2.49
2019-01-30T20:13:10.296Z,2.49
2019-01-30T20:15:37.661Z,2.42
2019-01-30T20:18:05.030Z,2.54
2019-01-30T20:20:33.276Z,2.55
2019-01-30T20:23:00.532Z,2.47
2019-01-30T20:25:30.258Z,2.44
2019-01-30T20:27:57.797Z,2.59
2019-01-30T20:30:24.969Z,2.48
2019-01-30T20:32:52.340Z,2.46
2019-01-30T20:35:19.575Z,2.74
2019-01-30T20:37:47.248Z,2.70
2019-01-30T20:40:21.822Z,2.67
2019-01-30T20:42:49.184Z,2.64
2019-01-30T20:45:16.398Z,2.60
2019-01-30T20:47:43.617Z,2.64
2019-01-30T20:50:13.592Z,2.61
2019-01-30T20:52:40.754Z,2.54
2019-01-30T20:55:08.596Z,2.63
2019-01-30T20:57:35.798Z,2.62
2019-01-30T21:00:06.122Z,2.51
2019-01-30T21:02:33.357Z,2.37
2019-01-30T21:05:00.919Z,2.19
2019-01-30T21:07:37.110Z,1.98
2019-01-30T21:09:57.376Z,2.04
2019-01-30T21:12:24.902Z,2.16
2019-01-30T21:14:52.064Z,2.37
2019-01-30T21:17:19.332Z,2.27
2019-01-30T21:19:46.524Z,2.18
2019-01-30T21:22:13.760Z,2.12
2019-01-30T21:24:41.002Z,2.32
2019-01-30T21:27:08.234Z,2.39
2019-01-30T21:29:35.453Z,2.48
2019-01-30T21:32:02.949Z,2.53
2019-01-30T21:34:30.014Z,2.39
2019-01-30T21:36:57.204Z,2.27
2019-01-30T21:39:24.322Z,2.45
2019-01-30T21:41:51.514Z,2.42
2019-01-30T21:44:18.688Z,2.32
2019-01-30T21:46:45.932Z,2.30
2019-01-30T21:49:13.399Z,2.36
2019-01-30T21:51:40.588Z,2.36
2019-01-30T21:54:07.807Z,2.27
2019-01-30T21:56:35.006Z,2.10
2019-01-30T21:59:02.584Z,2.20
2019-01-30T22:01:29.884Z,2.18
2019-01-30T22:03:57.031Z,2.01
2019-01-30T22:06:24.246Z,1.96
2019-01-30T22:08:51.501Z,1.90
2019-01-30T22:11:18.673Z,1.87
2019-01-30T22:13:45.879Z,1.80
2019-01-30T22:16:13.000Z,2.03
2019-01-30T22:18:40.185Z,2.02
2019-01-30T22:21:07.310Z,1.96
2019-01-30T22:23:34.467Z,1.87
2019-01-30T22:26:01.721Z,1.72
2019-01-30T22:28:29.257Z,1.64
2019-01-30T22:30:56.448Z,1.55
2019-01-30T22:33:23.672Z,1.72
2019-01-30T22:35:50.741Z,1.87
2019-01-30T22:38:17.957Z,1.79
2019-01-30T22:40:45.135Z,1.84
2019-01-30T22:43:12.314Z,1.89
2019-01-30T22:45:40.470Z,1.79
2019-01-30T22:48:07.676Z,1.65
2019-01-30T22:50:34.806Z,1.61
2019-01-30T22:53:02.398Z,1.34
2019-01-30T22:55:29.553Z,1.03
2019-01-30T22:57:56.908Z,0.75
2019-01-30T23:01:04.077Z,0.60
2019-01-30T23:03:42.042Z,0.60
2019-01-30T23:06:46.333Z,0.47
2019-01-30T23:10:07.116Z,0.29
2019-01-30T23:13:02.018Z,0.26
2019-01-30T23:16:03.407Z,0.16
2019-01-30T23:19:08.959Z,0.08
2019-01-30T23:22:23.752Z,0.11
2019-01-30T23:25:21.797Z,0.23
2019-01-30T23:27:56.361Z,0.53
2019-01-30T23:31:03.748Z,0.36
2019-01-30T23:45:02.507Z,-0.07
2019-01-30T23:47:57.833Z,0.03
2019-01-30T23:50:52.596Z,0.12
2019-01-30T23:54:06.280Z,0.09
2019-01-30T23:57:20.304Z,0.08
